Time;durP1;ratioP1;P1;durP2;ratioP2;P2;SDS_P1;SDS_P2;PMS_P1;PMS_P2;Temp;Humidity;BMP_temperature;BMP_pressure;BME280_temperature;BME280_humidity;BME280_pressure;Samples;Min_cycle;Max_cycle;Signal;HPM_P1;HPM_P2
2023/06/26 00:01:49;;;;;;;;;7.00;4.00;;;;;25.85;45.54;101211.34;6161508;23;44945;-68
2023/06/26 00:04:14;;;;;;;;;3.00;3.00;;;;;25.82;45.31;101211.47;6161796;23;44863;-69
2023/06/26 00:06:42;;;;;;;;;3.00;3.00;;;;;25.73;45.44;101198.94;6162111;23;44912;-69
2023/06/26 00:09:08;;;;;;;;;4.67;4.00;;;;;25.70;45.95;101200.88;6166700;23;45011;-65
2023/06/26 00:11:33;;;;;;;;;6.33;3.00;;;;;25.77;45.86;101220.75;6140409;23;45101;-68
2023/06/26 00:14:02;;;;;;;;;7.33;6.33;;;;;25.75;45.57;101221.72;6162056;23;45084;-68
2023/06/26 00:16:27;;;;;;;;;3.33;3.33;;;;;25.73;45.72;101219.94;6162038;23;45016;-67
2023/06/26 00:18:53;;;;;;;;;3.00;3.00;;;;;25.71;45.61;101217.25;6161564;23;45545;-68
2023/06/26 00:21:19;;;;;;;;;2.67;2.67;;;;;25.72;45.81;101219.06;6160637;23;45199;-68
2023/06/26 00:23:44;;;;;;;;;4.33;4.00;;;;;25.61;46.48;101203.91;6161415;23;45553;-69
2023/06/26 00:26:10;;;;;;;;;4.33;3.67;;;;;25.56;46.48;101212.22;6161303;23;45291;-69
2023/06/26 00:28:35;;;;;;;;;7.33;4.33;;;;;25.59;46.62;101225.81;6159413;23;46418;-68
2023/06/26 00:31:00;;;;;;;;;4.67;3.33;;;;;25.47;46.47;101218.84;6159823;23;44852;-69
2023/06/26 00:33:26;;;;;;;;;5.00;3.00;;;;;25.41;47.13;101219.03;6150394;23;45441;-68
2023/06/26 00:35:51;;;;;;;;;5.00;5.00;;;;;25.27;47.65;101219.41;6161145;23;45085;-69
2023/06/26 00:38:17;;;;;;;;;3.00;2.00;;;;;25.20;47.10;101218.63;6161265;23;45131;-68
2023/06/26 00:40:43;;;;;;;;;2.00;2.00;;;;;25.07;47.62;101197.13;6160625;23;44969;-69
2023/06/26 00:43:08;;;;;;;;;3.67;3.67;;;;;25.13;47.77;101222.47;6161848;23;45107;-68
2023/06/26 00:45:34;;;;;;;;;4.00;3.00;;;;;25.09;47.25;101214.41;6162117;23;44933;-68
2023/06/26 00:47:59;;;;;;;;;4.00;4.00;;;;;25.08;47.27;101215.31;6161525;23;45739;-68
2023/06/26 00:50:24;;;;;;;;;5.33;3.00;;;;;25.24;47.01;101243.16;6161256;23;44898;-69
2023/06/26 00:52:50;;;;;;;;;3.00;3.00;;;;;25.26;47.67;101244.94;6160412;23;44963;-68
2023/06/26 00:55:15;;;;;;;;;2.00;2.00;;;;;25.23;47.55;101246.81;6160914;23;45320;-68
2023/06/26 00:57:43;;;;;;;;;3.00;3.00;;;;;25.19;47.24;101241.47;6159821;23;45081;-67
2023/06/26 01:00:10;;;;;;;;;5.33;3.00;;;;;25.16;47.61;101243.34;6160351;23;44933;-67
2023/06/26 01:02:38;;;;;;;;;4.33;4.33;;;;;25.14;47.77;101242.50;6159982;23;45104;-68
2023/06/26 01:05:06;;;;;;;;;4.33;2.67;;;;;25.13;47.10;101244.34;6159976;23;44946;-69
2023/06/26 01:07:35;;;;;;;;;2.67;2.33;;;;;25.04;47.17;101250.06;6160603;23;46285;-68
2023/06/26 01:10:04;;;;;;;;;6.33;2.00;;;;;24.98;47.61;101247.50;6159836;23;45262;-68
2023/06/26 01:12:32;;;;;;;;;3.33;2.00;;;;;24.98;47.40;101255.69;6161216;23;45199;-68
2023/06/26 01:14:58;;;;;;;;;5.33;3.33;;;;;24.89;47.96;101242.25;6160842;23;45212;-69
2023/06/26 01:17:23;;;;;;;;;5.00;4.33;;;;;24.95;47.48;101258.50;6160704;23;45617;-67
2023/06/26 01:19:50;;;;;;;;;2.33;2.33;;;;;24.90;48.34;101261.34;6161677;23;44945;-67
2023/06/26 01:22:44;;;;;;;;;4.67;4.67;;;;;24.72;48.25;101227.19;6161955;23;44968;-68
2023/06/26 01:25:17;;;;;;;;;4.00;2.00;;;;;24.89;48.24;101264.13;6161998;23;45047;-68
2023/06/26 01:27:46;;;;;;;;;4.00;4.00;;;;;24.88;48.37;101273.25;6159902;23;46339;-67
2023/06/26 01:30:12;;;;;;;;;5.67;4.33;;;;;24.81;48.45;101276.16;6161386;23;44980;-68
2023/06/26 01:32:39;;;;;;;;;3.00;3.00;;;;;24.73;48.40;101267.25;6160937;23;45116;-67
2023/06/26 01:35:07;;;;;;;;;3.67;3.67;;;;;24.69;48.21;101262.78;6161994;23;45155;-68
2023/06/26 01:37:32;;;;;;;;;9.33;6.33;;;;;24.73;48.60;101277.25;6160346;23;45704;-68
2023/06/26 01:39:58;;;;;;;;;5.67;5.67;;;;;24.59;48.68;101270.28;6159990;23;44966;-69
2023/06/26 01:42:24;;;;;;;;;6.67;5.00;;;;;24.64;49.13;101292.94;6134154;23;45102;-69
2023/06/26 01:44:52;;;;;;;;;7.67;4.67;;;;;24.68;49.10;101288.28;6134767;23;45104;-68
2023/06/26 01:47:25;;;;;;;;;8.00;5.00;;;;;24.60;49.03;101269.34;6161473;23;45329;-68
2023/06/26 01:50:05;;;;;;;;;5.00;4.00;;;;;24.69;48.33;101290.09;6160729;23;45197;-68
2023/06/26 01:52:53;;;;;;;;;7.67;6.00;;;;;24.68;48.65;101295.59;6161385;23;44940;-67
2023/06/26 01:55:35;;;;;;;;;6.33;3.67;;;;;24.62;48.09;101283.00;6161201;23;45024;-68
2023/06/26 01:58:02;;;;;;;;;7.33;4.67;;;;;24.68;48.32;101304.69;6140113;23;46693;-67
2023/06/26 02:00:28;;;;;;;;;8.00;6.33;;;;;24.59;47.96;101310.38;6162617;23;45171;-69
2023/06/26 02:02:53;;;;;;;;;7.33;5.00;;;;;24.42;48.25;101303.44;6161115;23;45012;-68
2023/06/26 02:05:19;;;;;;;;;7.67;4.67;;;;;24.45;48.06;101310.63;6161032;23;45169;-67
2023/06/26 02:07:44;;;;;;;;;4.33;4.33;;;;;24.42;48.20;101319.81;6162492;23;45487;-69
2023/06/26 02:10:10;;;;;;;;;8.67;6.33;;;;;24.34;48.56;101307.28;6161393;23;45119;-68
2023/06/26 02:12:36;;;;;;;;;6.67;3.67;;;;;24.22;48.63;101319.31;6161123;23;45110;-68
2023/06/26 02:15:03;;;;;;;;;3.00;3.00;;;;;24.00;48.60;101313.44;6160769;23;44986;-69
2023/06/26 02:17:28;;;;;;;;;4.00;4.00;;;;;23.97;49.26;101325.28;6135134;23;46793;-70
2023/06/26 02:19:55;;;;;;;;;5.67;5.67;;;;;23.90;49.14;101319.06;6160406;23;44910;-69
2023/06/26 02:22:20;;;;;;;;;5.67;3.67;;;;;23.96;49.20;101326.25;6161546;23;44844;-67
2023/06/26 02:24:45;;;;;;;;;5.00;5.00;;;;;23.94;48.89;101325.38;6162034;23;45014;-69
2023/06/26 02:27:11;;;;;;;;;4.33;1.67;;;;;23.95;48.52;101327.16;6160546;23;45391;-68
2023/06/26 02:29:37;;;;;;;;;5.33;4.00;;;;;23.94;48.71;101336.31;6160674;23;45074;-68
2023/06/26 02:32:02;;;;;;;;;5.00;4.67;;;;;23.95;48.42;101329.91;6160642;23;44863;-68
2023/06/26 02:34:30;;;;;;;;;4.00;4.00;;;;;23.92;47.94;101333.59;6161740;23;45218;-69
2023/06/26 02:36:56;;;;;;;;;6.33;3.33;;;;;23.98;47.78;101334.41;6158792;23;45647;-68
2023/06/26 02:39:21;;;;;;;;;4.00;2.67;;;;;23.98;47.60;101337.13;6160742;23;45052;-66
2023/06/26 02:41:47;;;;;;;;;3.00;2.33;;;;;23.93;46.83;101348.13;6159243;23;45280;-70
2023/06/26 02:44:13;;;;;;;;;2.33;1.00;;;;;23.45;46.78;101285.38;6159686;23;44791;-69
2023/06/26 02:46:38;;;;;;;;;2.33;2.00;;;;;23.86;46.87;101354.66;6159667;23;45297;-68
2023/06/26 02:49:04;;;;;;;;;1.00;1.00;;;;;23.74;46.62;101340.28;6158636;23;48344;-68
2023/06/26 02:51:32;;;;;;;;;2.00;2.00;;;;;23.41;46.58;101289.94;6160262;23;45167;-67
2023/06/26 02:53:58;;;;;;;;;3.33;1.00;;;;;23.60;46.71;101339.63;6160228;23;45304;-67
2023/06/26 02:56:23;;;;;;;;;2.00;0.00;;;;;23.63;46.83;101365.97;6160113;23;45171;-69
2023/06/26 02:58:48;;;;;;;;;4.00;1.00;;;;;23.57;46.73;101356.03;6161018;23;44953;-66
2023/06/26 03:01:14;;;;;;;;;1.67;1.00;;;;;23.64;46.50;101363.22;6161107;23;44874;-69
2023/06/26 03:03:41;;;;;;;;;6.00;1.67;;;;;23.60;46.25;101356.00;6161377;23;44890;-66
2023/06/26 03:06:07;;;;;;;;;2.00;2.00;;;;;23.65;46.33;101370.44;6134672;23;47183;-67
2023/06/26 03:08:36;;;;;;;;;2.33;2.00;;;;;23.59;46.88;101367.81;6160039;23;44889;-68
2023/06/26 03:11:01;;;;;;;;;7.33;3.00;;;;;23.54;47.25;101372.47;6160926;23;44855;-68
2023/06/26 03:13:27;;;;;;;;;0.67;0.67;;;;;23.50;46.95;101359.81;6161284;23;44907;-67
2023/06/26 03:15:52;;;;;;;;;5.00;2.67;;;;;23.56;47.31;101370.63;6160533;23;46039;-69
2023/06/26 03:18:17;;;;;;;;;1.00;1.00;;;;;23.54;47.39;101372.47;6160448;23;44986;-67
2023/06/26 03:20:43;;;;;;;;;1.67;0.33;;;;;23.53;46.98;101378.84;6160715;23;44871;-69
2023/06/26 03:23:08;;;;;;;;;1.67;0.33;;;;;23.41;47.32;101358.13;6134903;23;45002;-69
2023/06/26 03:25:33;;;;;;;;;1.00;1.00;;;;;23.45;47.50;101375.38;6160883;23;45538;-68
2023/06/26 03:27:59;;;;;;;;;2.33;0.67;;;;;23.31;47.60;101362.88;6159981;23;45053;-68
2023/06/26 03:30:24;;;;;;;;;2.00;0.33;;;;;23.43;47.48;101386.28;6161334;23;44783;-69
2023/06/26 03:32:49;;;;;;;;;4.00;1.00;;;;;23.35;47.35;101366.44;6160454;23;44962;-69
2023/06/26 03:35:15;;;;;;;;;4.33;2.67;;;;;23.21;47.61;101376.66;6159755;23;45573;-69
2023/06/26 03:37:40;;;;;;;;;0.67;0.67;;;;;23.11;47.98;101387.69;6160476;23;44934;-68
2023/06/26 03:40:06;;;;;;;;;1.33;1.00;;;;;23.04;48.09;101388.69;6160796;23;45311;-69
2023/06/26 03:42:32;;;;;;;;;3.00;2.00;;;;;22.94;48.12;101379.75;6161328;23;45227;-69
2023/06/26 03:44:57;;;;;;;;;5.67;2.00;;;;;23.07;48.25;101401.41;6161989;23;45253;-67
2023/06/26 03:47:23;;;;;;;;;3.00;1.33;;;;;23.03;48.45;101396.88;6165803;23;44953;-68
2023/06/26 03:49:48;;;;;;;;;2.67;2.00;;;;;22.92;49.04;101408.84;6163990;23;45262;-69
2023/06/26 03:52:13;;;;;;;;;4.67;4.00;;;;;22.77;49.25;101406.34;6162037;23;45149;-69
2023/06/26 03:54:39;;;;;;;;;1.00;1.00;;;;;22.85;49.32;101415.31;6159893;23;45591;-69
2023/06/26 03:57:04;;;;;;;;;3.00;2.00;;;;;22.87;49.52;101421.66;6160186;23;44974;-68
2023/06/26 03:59:31;;;;;;;;;6.67;1.00;;;;;22.76;49.36;101401.81;6161157;23;45014;-69
2023/06/26 04:01:56;;;;;;;;;3.33;2.33;;;;;22.92;49.33;101427.03;6162293;23;44887;-69
2023/06/26 04:04:22;;;;;;;;;1.33;1.33;;;;;22.83;49.15;101414.41;6136318;23;47032;-69
2023/06/26 04:06:47;;;;;;;;;3.33;2.00;;;;;22.79;49.38;101418.13;6162517;23;44894;-68
2023/06/26 04:09:12;;;;;;;;;4.00;3.00;;;;;22.84;49.22;101420.78;6162237;23;45036;-69
2023/06/26 04:11:38;;;;;;;;;4.00;2.00;;;;;22.76;49.45;101442.69;6162454;23;45129;-70
2023/06/26 04:14:03;;;;;;;;;3.00;2.00;;;;;22.57;49.81;101426.59;6161584;23;45319;-68
2023/06/26 04:16:28;;;;;;;;;5.67;2.67;;;;;22.67;49.76;101445.50;6161343;23;45737;-69
2023/06/26 04:18:56;;;;;;;;;4.00;4.00;;;;;22.59;49.87;101451.06;6161889;23;44906;-69
2023/06/26 04:21:24;;;;;;;;;2.00;2.00;;;;;22.53;49.87;101454.75;6161782;23;45397;-68
2023/06/26 04:23:50;;;;;;;;;5.67;2.67;;;;;22.49;50.04;101439.38;6160381;23;45478;-67
2023/06/26 04:26:15;;;;;;;;;3.00;3.00;;;;;22.51;49.78;101437.53;6160560;23;45195;-67
2023/06/26 04:28:41;;;;;;;;;4.67;4.67;;;;;22.59;50.13;101454.69;6160840;23;45060;-67
2023/06/26 04:31:07;;;;;;;;;4.00;3.00;;;;;22.64;50.33;101458.25;6160570;23;45040;-67
2023/06/26 04:33:32;;;;;;;;;5.00;4.00;;;;;22.62;50.47;101451.03;6161087;23;45467;-69
2023/06/26 04:35:59;;;;;;;;;6.67;4.00;;;;;22.56;50.58;101440.22;6136455;23;44905;-68
2023/06/26 04:38:25;;;;;;;;;3.67;3.33;;;;;22.52;51.02;101458.41;6162265;23;45084;-69
2023/06/26 04:40:50;;;;;;;;;2.00;1.00;;;;;22.43;51.08;101456.69;6162107;23;44926;-68
2023/06/26 04:43:15;;;;;;;;;3.00;3.00;;;;;22.26;51.39;101442.34;6161286;23;50335;-68
2023/06/26 04:45:41;;;;;;;;;3.00;1.33;;;;;22.18;51.95;101461.47;6161311;23;45015;-68
2023/06/26 04:48:06;;;;;;;;;3.00;3.00;;;;;21.99;52.29;101455.31;6161778;23;44981;-69
2023/06/26 04:50:33;;;;;;;;;4.67;2.00;;;;;21.92;52.74;101469.00;6161339;23;44903;-68
2023/06/26 04:52:59;;;;;;;;;2.67;2.33;;;;;21.70;53.14;101432.00;6161649;23;45699;-67
2023/06/26 04:55:24;;;;;;;;;4.00;3.00;;;;;22.00;52.64;101467.09;6162043;23;45055;-67
2023/06/26 04:57:50;;;;;;;;;4.67;3.00;;;;;21.92;52.81;101444.50;6161733;23;45048;-70
2023/06/26 05:00:16;;;;;;;;;4.33;3.67;;;;;22.19;52.33;101474.16;6135602;23;44960;-67
2023/06/26 05:02:41;;;;;;;;;3.00;3.00;;;;;22.30;51.88;101476.78;6162172;23;44918;-68
2023/06/26 05:05:07;;;;;;;;;6.33;3.33;;;;;22.33;51.62;101474.03;6162333;23;44909;-68
2023/06/26 05:07:32;;;;;;;;;3.00;3.00;;;;;22.28;51.72;101473.16;6161677;23;45097;-68
2023/06/26 05:09:58;;;;;;;;;3.00;1.00;;;;;22.41;51.41;101480.31;6162613;23;45103;-68
2023/06/26 05:12:23;;;;;;;;;5.33;3.00;;;;;22.39;51.19;101473.06;6161792;23;45405;-68
2023/06/26 05:14:48;;;;;;;;;3.00;2.67;;;;;22.45;51.22;101486.63;6162342;23;44841;-68
2023/06/26 05:17:15;;;;;;;;;3.00;3.00;;;;;22.35;51.34;101490.38;6160465;23;45194;-68
2023/06/26 05:19:40;;;;;;;;;3.00;1.67;;;;;22.31;51.64;101494.06;6159867;23;45322;-66
2023/06/26 05:22:07;;;;;;;;;4.33;2.67;;;;;22.23;51.85;101486.81;6159682;23;45717;-69
2023/06/26 05:24:35;;;;;;;;;3.33;2.00;;;;;22.25;51.95;101492.25;6135782;23;45830;-67
2023/06/26 05:27:00;;;;;;;;;3.67;2.33;;;;;22.19;52.16;101497.75;6161944;23;44911;-69
2023/06/26 05:29:26;;;;;;;;;3.00;2.33;;;;;22.18;52.25;101504.13;6162515;23;45036;-68
2023/06/26 05:31:54;;;;;;;;;4.33;4.33;;;;;22.05;52.35;101504.22;6161911;23;45209;-67
2023/06/26 05:34:22;;;;;;;;;1.67;1.67;;;;;22.16;52.02;101497.75;6160348;23;45093;-67
2023/06/26 05:36:50;;;;;;;;;11.00;9.00;;;;;22.30;51.71;101509.47;6162219;23;44981;-67
2023/06/26 05:39:17;;;;;;;;;4.33;3.00;;;;;22.24;51.62;101479.53;6161739;23;45065;-68
2023/06/26 05:41:44;;;;;;;;;4.00;3.33;;;;;22.37;53.11;101504.84;6160969;23;45153;-52
2023/06/26 05:44:10;;;;;;;;;10.67;4.00;;;;;22.54;51.45;101513.75;6159595;23;44919;-51
2023/06/26 05:46:35;;;;;;;;;4.33;4.00;;;;;22.60;51.27;101505.53;6160933;23;44871;-55
2023/06/26 05:49:01;;;;;;;;;3.67;3.67;;;;;22.68;50.81;101499.97;6159818;23;45138;-53
2023/06/26 05:51:27;;;;;;;;;4.33;4.33;;;;;22.77;50.52;101505.31;6159951;23;45328;-53
2023/06/26 05:53:52;;;;;;;;;4.67;4.67;;;;;22.80;50.44;101507.09;6160200;23;44893;-54
2023/06/26 05:56:18;;;;;;;;;7.00;5.33;;;;;22.80;50.25;101512.53;6159570;23;44971;-53
2023/06/26 05:58:45;;;;;;;;;3.67;3.67;;;;;22.68;50.38;101493.63;6161922;23;45072;-59
2023/06/26 06:01:10;;;;;;;;;9.00;6.00;;;;;22.77;50.31;101510.78;6161325;23;45610;-58
2023/06/26 06:03:35;;;;;;;;;5.00;5.00;;;;;22.75;50.12;101501.72;6156519;23;45246;-58
2023/06/26 06:06:01;;;;;;;;;10.00;6.00;;;;;22.83;49.97;101509.78;6160560;23;45445;-59
2023/06/26 06:08:26;;;;;;;;;5.33;5.33;;;;;22.72;50.22;101493.59;6160745;23;44950;-58
2023/06/26 06:10:53;;;;;;;;;5.00;4.00;;;;;22.77;49.61;101508.03;6160459;23;45579;-59
2023/06/26 06:13:18;;;;;;;;;5.00;5.00;;;;;22.74;49.95;101508.06;6160216;23;44891;-60
2023/06/26 06:15:43;;;;;;;;;4.67;4.67;;;;;22.65;49.68;101508.19;6161603;23;45064;-60
2023/06/26 06:18:08;;;;;;;;;5.33;5.33;;;;;22.60;49.87;101513.69;6158159;23;45623;-61
2023/06/26 06:20:35;;;;;;;;;8.33;6.00;;;;;22.57;50.13;101512.81;6158866;23;46762;-62
2023/06/26 06:23:00;;;;;;;;;6.67;4.33;;;;;22.73;49.90;101522.59;6161149;23;44878;-63
2023/06/26 06:25:25;;;;;;;;;10.67;7.67;;;;;22.75;49.84;101504.44;6161082;23;45123;-63
2023/06/26 06:27:51;;;;;;;;;5.67;4.33;;;;;22.97;49.34;101517.81;6160472;23;44870;-63
2023/06/26 06:30:16;;;;;;;;;5.67;5.33;;;;;23.03;49.10;101508.63;6159336;23;56359;-62
2023/06/26 06:32:41;;;;;;;;;6.67;3.67;;;;;23.11;48.52;101528.53;6160694;23;45020;-62
2023/06/26 06:35:09;;;;;;;;;6.67;5.33;;;;;23.13;48.17;101526.69;6159962;23;45356;-61
2023/06/26 06:37:36;;;;;;;;;6.00;4.00;;;;;23.23;48.10;101536.56;6159693;23;44968;-62
2023/06/26 06:40:01;;;;;;;;;3.33;3.33;;;;;23.26;47.97;101541.97;6158249;23;45587;-62
2023/06/26 06:42:28;;;;;;;;;8.00;5.33;;;;;23.44;47.96;101553.53;6159571;23;45155;-62
2023/06/26 06:44:53;;;;;;;;;3.67;3.67;;;;;23.45;47.56;101563.53;6159668;23;45149;-66
2023/06/26 06:47:18;;;;;;;;;4.33;4.00;;;;;23.29;47.79;101552.81;6160293;23;45619;-61
2023/06/26 06:49:44;;;;;;;;;3.00;2.67;;;;;23.22;47.78;101556.56;6159963;23;45333;-62
2023/06/26 06:52:10;;;;;;;;;4.67;4.67;;;;;22.91;48.18;101528.78;6108899;23;45606;-61
2023/06/26 06:54:52;;;;;;;;;4.33;3.00;;;;;22.89;48.42;101546.97;6159918;23;45582;-62
2023/06/26 06:57:18;;;;;;;;;7.33;5.67;;;;;22.94;48.52;101562.31;6158771;23;44880;-62
2023/06/26 06:59:43;;;;;;;;;9.33;6.00;;;;;23.02;48.39;101553.19;6157285;23;45241;-62
2023/06/26 07:02:08;;;;;;;;;5.00;4.33;;;;;23.16;47.78;101559.38;6159567;23;44795;-62
2023/06/26 07:04:34;;;;;;;;;5.67;5.67;;;;;23.18;47.56;101555.72;6159986;23;45381;-61
2023/06/26 07:06:59;;;;;;;;;4.67;4.67;;;;;23.09;47.50;101553.09;6159920;23;44876;-62
2023/06/26 07:09:24;;;;;;;;;7.00;4.00;;;;;23.19;47.47;101559.34;6159689;23;45484;-64
2023/06/26 07:11:50;;;;;;;;;4.67;4.67;;;;;23.35;47.40;101554.59;6158755;23;46018;-61
2023/06/26 07:14:15;;;;;;;;;6.33;3.33;;;;;23.44;46.67;101537.19;6160169;23;49647;-62
2023/06/26 07:16:40;;;;;;;;;8.00;6.00;;;;;23.66;46.41;101545.94;6159830;23;45064;-61
2023/06/26 07:19:06;;;;;;;;;7.33;5.67;;;;;23.69;46.61;101549.53;6160508;23;45626;-61
2023/06/26 07:21:31;;;;;;;;;10.67;6.00;;;;;23.83;46.20;101563.00;6160852;23;45074;-63
2023/06/26 07:23:56;;;;;;;;;10.67;6.00;;;;;23.77;45.82;101549.41;6134862;23;45329;-61
2023/06/26 07:26:22;;;;;;;;;5.33;5.33;;;;;23.88;45.57;101569.28;6162567;23;45071;-61
2023/06/26 07:28:48;;;;;;;;;8.67;7.33;;;;;23.87;44.96;101566.56;6133035;23;45810;-63
2023/06/26 07:31:14;;;;;;;;;7.33;5.00;;;;;23.89;45.44;101568.38;6162067;23;45047;-61
2023/06/26 07:33:40;;;;;;;;;3.00;3.00;;;;;23.89;45.07;101564.72;6160921;23;44993;-61
2023/06/26 07:36:05;;;;;;;;;6.33;5.00;;;;;23.93;45.04;101566.47;6162193;23;45219;-63
2023/06/26 07:38:31;;;;;;;;;8.67;3.67;;;;;24.07;44.83;101578.09;6160856;23;45902;-62
2023/06/26 07:40:56;;;;;;;;;5.67;4.33;;;;;24.20;44.45;101573.28;6161032;23;45267;-62
2023/06/26 07:43:22;;;;;;;;;13.33;10.00;;;;;24.35;43.79;101566.66;6160506;23;44862;-61
2023/06/26 07:45:48;;;;;;;;;7.00;4.00;;;;;24.44;43.58;101574.69;6160935;23;45178;-62
2023/06/26 07:48:13;;;;;;;;;4.00;3.00;;;;;24.17;42.88;101521.50;6160096;23;45462;-62
2023/06/26 07:50:39;;;;;;;;;8.00;8.00;;;;;24.55;43.02;101576.31;6160503;23;44930;-62
2023/06/26 07:53:05;;;;;;;;;4.00;4.00;;;;;24.65;43.30;101594.41;6134746;23;44946;-63
2023/06/26 07:55:31;;;;;;;;;8.00;7.00;;;;;24.75;43.05;101582.38;6160932;23;44955;-62
2023/06/26 07:57:56;;;;;;;;;8.00;5.00;;;;;24.68;43.12;101577.94;6135110;23;46858;-66
2023/06/26 08:00:22;;;;;;;;;7.00;4.33;;;;;24.40;43.10;101582.97;6159936;23;45332;-64
2023/06/26 08:02:47;;;;;;;;;2.67;2.67;;;;;24.38;43.41;101593.94;6161372;23;44962;-65
2023/06/26 08:05:13;;;;;;;;;4.00;4.00;;;;;24.24;43.07;101587.81;6162119;23;45213;-64
2023/06/26 08:07:39;;;;;;;;;4.67;4.00;;;;;24.19;42.65;101585.16;6160682;23;45634;-63
2023/06/26 08:10:05;;;;;;;;;7.67;4.67;;;;;24.01;43.29;101594.56;6161209;23;45072;-63
2023/06/26 08:12:30;;;;;;;;;2.00;2.00;;;;;23.87;43.52;101588.41;6161157;23;45089;-65
2023/06/26 08:14:56;;;;;;;;;6.33;5.00;;;;;23.82;43.75;101579.34;6160894;23;45089;-63
2023/06/26 08:17:21;;;;;;;;;5.00;4.00;;;;;24.03;43.31;101600.88;6160477;23;45436;-64
2023/06/26 08:19:46;;;;;;;;;4.33;3.33;;;;;24.04;43.02;101591.78;6161206;23;48069;-62
2023/06/26 08:22:12;;;;;;;;;5.00;3.67;;;;;24.21;42.98;101612.44;6162014;23;45402;-63
2023/06/26 08:24:37;;;;;;;;;8.00;5.33;;;;;24.26;42.61;101597.78;6162174;23;44870;-65
2023/06/26 08:27:03;;;;;;;;;5.33;5.33;;;;;24.42;42.38;101609.34;6158845;23;45043;-64
2023/06/26 08:29:29;;;;;;;;;3.00;3.00;;;;;24.57;42.06;101607.31;6135708;23;45248;-64
2023/06/26 08:31:54;;;;;;;;;4.00;4.00;;;;;24.62;41.14;101595.34;6161037;23;45143;-62
2023/06/26 08:34:19;;;;;;;;;5.67;3.67;;;;;24.61;41.30;101601.75;6160754;23;45260;-63
2023/06/26 08:36:45;;;;;;;;;5.67;3.00;;;;;24.71;40.95;101590.66;6161171;23;45831;-64
2023/06/26 08:39:10;;;;;;;;;5.67;2.00;;;;;24.65;39.77;101589.84;6162095;23;45080;-64
2023/06/26 08:41:36;;;;;;;;;2.67;2.67;;;;;24.49;39.92;101577.34;6134643;23;45036;-63
2023/06/26 08:44:04;;;;;;;;;2.00;2.00;;;;;24.46;39.74;101578.28;6160978;23;45149;-61
2023/06/26 08:46:31;;;;;;;;;4.00;2.00;;;;;24.57;40.35;101593.66;6159562;23;45961;-63
2023/06/26 08:49:00;;;;;;;;;2.00;2.00;;;;;24.67;39.94;101591.66;6161366;23;44922;-64
2023/06/26 08:51:28;;;;;;;;;4.00;4.00;;;;;24.97;39.93;101606.53;6161470;23;45038;-66
2023/06/26 08:54:17;;;;;;;;;2.00;2.00;;;;;25.13;39.20;101588.91;6161954;23;45068;-65
2023/06/26 08:56:46;;;;;;;;;2.33;2.33;;;;;25.14;38.47;101582.47;6160131;23;45450;-64
2023/06/26 08:59:13;;;;;;;;;3.00;1.67;;;;;25.18;39.38;101564.19;6160045;23;45093;-64
2023/06/26 09:01:41;;;;;;;;;4.00;1.33;;;;;25.46;38.23;101583.66;6161217;23;44971;-66
2023/06/26 09:04:06;;;;;;;;;9.00;8.00;;;;;25.60;38.33;101588.81;6161563;23;45106;-65
2023/06/26 09:06:32;;;;;;;;;4.67;4.00;;;;;25.75;38.73;101593.97;6161128;23;45124;-63
2023/06/26 09:08:58;;;;;;;;;3.00;3.00;;;;;25.84;37.92;101592.81;6161350;23;45049;-62
2023/06/26 09:11:23;;;;;;;;;4.67;3.00;;;;;25.91;37.88;101582.63;6160915;23;45020;-65
2023/06/26 09:13:49;;;;;;;;;3.00;2.00;;;;;25.94;37.97;101579.81;6160934;23;45021;-66
2023/06/26 09:16:14;;;;;;;;;4.67;2.67;;;;;26.06;37.89;101589.59;6161434;23;59016;-64
2023/06/26 09:18:42;;;;;;;;;3.00;1.33;;;;;25.94;37.95;101568.88;6161332;23;45053;-66
2023/06/26 09:21:08;;;;;;;;;4.33;3.67;;;;;26.06;37.95;101592.34;6161902;23;45384;-66
2023/06/26 09:23:35;;;;;;;;;1.33;1.33;;;;;26.05;37.66;101598.75;6161842;23;45071;-65
2023/06/26 09:26:05;;;;;;;;;5.00;3.00;;;;;25.99;37.55;101588.84;6161445;23;46638;-64
2023/06/26 09:28:33;;;;;;;;;3.00;2.00;;;;;25.96;37.11;101582.56;6160502;23;45029;-64
2023/06/26 09:31:03;;;;;;;;;5.33;4.67;;;;;25.90;37.07;101586.28;6159215;23;45031;-62
2023/06/26 09:33:35;;;;;;;;;3.00;3.00;;;;;25.88;37.92;101582.69;6161530;23;44845;-61
2023/06/26 09:36:01;;;;;;;;;3.67;3.67;;;;;25.94;37.66;101590.78;6160828;23;45597;-64
2023/06/26 09:38:27;;;;;;;;;6.67;4.00;;;;;25.87;36.84;101590.03;6161867;23;44925;-64
2023/06/26 09:40:52;;;;;;;;;3.00;3.00;;;;;25.85;36.21;101585.50;6159985;23;44948;-69
2023/06/26 09:43:18;;;;;;;;;3.00;3.00;;;;;25.85;36.63;101585.50;6160242;23;45245;-68
2023/06/26 09:45:44;;;;;;;;;7.67;5.67;;;;;25.89;36.19;101598.19;6159191;23;45097;-67
2023/06/26 09:48:11;;;;;;;;;3.00;2.00;;;;;25.72;33.97;101560.25;6160231;23;45230;-64
2023/06/26 09:50:40;;;;;;;;;5.00;2.00;;;;;25.81;33.81;101579.22;6133461;23;45217;-62
2023/06/26 09:53:13;;;;;;;;;2.67;1.00;;;;;25.94;33.28;101597.13;6159896;23;44851;-62
2023/06/26 09:55:40;;;;;;;;;2.33;2.00;;;;;25.87;33.72;101570.84;6133001;23;45756;-65
2023/06/26 09:58:06;;;;;;;;;6.67;4.00;;;;;26.03;33.74;101582.34;6159466;23;45036;-65
2023/06/26 10:00:32;;;;;;;;;2.67;2.00;;;;;26.22;33.15;101601.09;6160019;23;44920;-69
2023/06/26 10:03:00;;;;;;;;;6.00;3.00;;;;;26.23;33.48;101601.03;6160914;23;45227;-73
2023/06/26 10:05:26;;;;;;;;;5.33;4.00;;;;;26.10;33.39;101577.63;6161838;23;45300;-73
2023/06/26 10:07:53;;;;;;;;;4.00;3.67;;;;;26.25;33.61;101615.59;6161837;23;45015;-73
2023/06/26 10:10:20;;;;;;;;;4.33;4.33;;;;;26.30;33.64;101610.00;6161521;23;45104;-75
2023/06/26 10:12:51;;;;;;;;;8.00;6.00;;;;;26.37;33.29;101611.63;6161157;23;45131;-74
2023/06/26 10:15:17;;;;;;;;;7.00;4.67;;;;;26.28;33.19;101589.94;6160924;23;46074;-73
2023/06/26 10:17:46;;;;;;;;;5.00;4.00;;;;;26.34;33.58;101602.59;6161260;23;44981;-73
2023/06/26 10:20:14;;;;;;;;;3.00;3.00;;;;;26.13;33.91;101602.19;6160992;23;44883;-72
2023/06/26 10:22:48;;;;;;;;;2.00;1.00;;;;;25.89;33.55;101579.94;6159953;23;44900;-74
2023/06/26 10:25:19;;;;;;;;;3.33;1.67;;;;;25.85;33.54;101605.56;6134345;23;46854;-72
2023/06/26 10:27:48;;;;;;;;;3.00;3.00;;;;;25.88;32.78;101616.44;6159936;23;45014;-74
2023/06/26 10:30:20;;;;;;;;;3.00;3.00;;;;;25.77;32.94;101615.78;6160005;23;45136;-73
2023/06/26 10:32:47;;;;;;;;;5.33;2.00;;;;;25.72;33.19;101624.13;6161165;23;45092;-74
2023/06/26 10:35:13;;;;;;;;;3.33;3.00;;;;;25.63;33.06;101605.16;6160426;23;45447;-72
2023/06/26 10:37:45;;;;;;;;;4.00;3.67;;;;;25.80;33.27;101614.84;6158979;23;45425;-72
2023/06/26 10:40:12;;;;;;;;;4.67;3.67;;;;;25.86;32.74;101604.63;6159673;23;44979;-72
2023/06/26 10:42:39;;;;;;;;;4.00;4.00;;;;;25.93;32.68;101594.44;6133748;23;44874;-73
2023/06/26 10:45:15;;;;;;;;;2.33;2.33;;;;;26.07;32.98;101614.22;6160366;23;45702;-73
2023/06/26 10:47:42;;;;;;;;;5.33;4.00;;;;;26.07;33.29;101616.94;6159307;23;44984;-72
2023/06/26 10:50:24;;;;;;;;;3.00;3.00;;;;;25.95;33.66;101619.94;6161766;23;45163;-72
2023/06/26 10:53:08;;;;;;;;;2.00;1.67;;;;;25.82;32.70;101616.63;6161948;23;44981;-74
2023/06/26 10:55:33;;;;;;;;;2.00;2.00;;;;;25.68;31.80;101596.88;6160161;23;45750;-72
2023/06/26 10:57:58;;;;;;;;;2.00;2.00;;;;;25.78;30.10;101614.88;6135221;23;44928;-73
2023/06/26 11:00:24;;;;;;;;;2.00;2.00;;;;;25.74;30.61;101604.94;6136540;23;44888;-73
2023/06/26 11:02:50;;;;;;;;;4.00;2.67;;;;;25.82;30.92;101613.88;6138286;23;45268;-72
2023/06/26 11:05:32;;;;;;;;;2.00;2.00;;;;;25.85;31.25;101596.47;6162436;23;45765;-73
2023/06/26 11:08:07;;;;;;;;;2.33;2.33;;;;;25.82;31.91;101599.25;6163813;23;44856;-71
2023/06/26 11:10:53;;;;;;;;;5.00;4.33;;;;;26.00;32.09;101611.66;6135080;23;44892;-72
2023/06/26 11:13:19;;;;;;;;;3.00;2.33;;;;;26.13;32.62;101615.88;6135890;23;45227;-74
2023/06/26 11:15:46;;;;;;;;;4.33;3.00;;;;;26.17;31.72;101600.28;6161786;23;45989;-73
2023/06/26 11:18:12;;;;;;;;;4.67;3.00;;;;;26.18;31.89;101591.13;6161173;23;44977;-73
2023/06/26 11:20:38;;;;;;;;;3.00;2.00;;;;;26.19;31.13;101609.38;6159028;23;45266;-72
2023/06/26 11:23:06;;;;;;;;;4.00;2.67;;;;;26.19;31.68;101607.53;6161202;23;45383;-74